createdAt,value
2019-02-09T00:04:12.821Z,57.88
2019-02-09T00:09:16.610Z,58.32
2019-02-09T00:14:20.334Z,59.15
2019-02-09T00:19:23.976Z,59.52
2019-02-09T00:24:27.652Z,59.67
2019-02-09T00:29:31.516Z,59.98
2019-02-09T00:34:35.290Z,60.12
2019-02-09T00:39:39.021Z,60.65
2019-02-09T00:44:42.662Z,61.14
2019-02-09T00:49:47.084Z,61.51
2019-02-09T00:54:50.914Z,61.63
2019-02-09T00:59:54.753Z,62.17
2019-02-09T01:04:58.645Z,62.54
2019-02-09T01:10:04.276Z,62.92
2019-02-09T01:15:10.722Z,63.22
2019-02-09T01:20:20.374Z,63.39
2019-02-09T01:25:24.138Z,63.34
2019-02-09T01:30:28.036Z,63.00
2019-02-09T01:35:31.744Z,62.98
2019-02-09T01:40:35.610Z,63.37
2019-02-09T01:45:39.709Z,63.29
2019-02-09T01:50:43.895Z,63.45
2019-02-09T01:55:48.117Z,63.82
2019-02-09T02:00:52.429Z,63.87
2019-02-09T02:05:57.319Z,64.22
2019-02-09T02:11:01.222Z,63.55
2019-02-09T02:16:05.215Z,63.79
2019-02-09T02:21:08.988Z,63.74
2019-02-09T02:26:12.647Z,63.74
2019-02-09T02:31:16.581Z,63.71
2019-02-09T02:36:20.397Z,63.99
2019-02-09T02:41:24.353Z,64.06
2019-02-09T02:46:28.094Z,64.18
2019-02-09T02:51:32.346Z,64.06
2019-02-09T02:56:36.029Z,64.35
2019-02-09T03:01:39.803Z,64.38
2019-02-09T03:06:43.401Z,64.89
2019-02-09T03:11:47.186Z,64.77
2019-02-09T03:16:51.055Z,65.12
2019-02-09T03:21:55.933Z,65.45
2019-02-09T03:26:59.706Z,65.59
2019-02-09T03:32:04.549Z,65.56
2019-02-09T03:37:08.510Z,65.90
2019-02-09T03:42:13.377Z,65.80
2019-02-09T03:47:17.241Z,65.80
2019-02-09T03:52:21.672Z,65.92
2019-02-09T03:57:26.286Z,65.88
2019-02-09T04:02:30.235Z,65.94
2019-02-09T04:07:34.724Z,66.07
2019-02-09T04:12:41.114Z,66.35
2019-02-09T04:17:44.951Z,66.30
2019-02-09T04:22:48.997Z,66.48
2019-02-09T04:27:53.908Z,66.59
2019-02-09T04:33:02.000Z,66.26
2019-02-09T04:38:07.398Z,66.24
2019-02-09T04:43:12.023Z,65.68
2019-02-09T04:48:16.116Z,65.90
2019-02-09T04:53:20.951Z,66.07
2019-02-09T04:58:24.911Z,65.91
2019-02-09T05:03:28.692Z,65.88
2019-02-09T05:08:33.061Z,66.24
2019-02-09T05:13:37.019Z,65.83
2019-02-09T05:18:41.161Z,65.85
2019-02-09T05:23:45.478Z,65.84
2019-02-09T05:28:49.254Z,65.36
2019-02-09T05:33:55.328Z,65.93
2019-02-09T05:38:59.273Z,66.16
2019-02-09T05:44:03.293Z,65.81
2019-02-09T05:49:07.274Z,66.19
2019-02-09T05:54:11.458Z,66.32
2019-02-09T05:59:15.145Z,66.27
2019-02-09T06:04:20.854Z,66.19
2019-02-09T06:09:25.956Z,65.79
2019-02-09T06:14:31.964Z,65.17
2019-02-09T06:19:36.834Z,65.01
2019-02-09T06:24:41.066Z,64.75
2019-02-09T06:29:44.996Z,64.61
2019-02-09T06:34:49.177Z,64.48
2019-02-09T06:39:53.265Z,64.22
2019-02-09T06:44:57.377Z,63.41
2019-02-09T06:50:01.133Z,62.88
2019-02-09T06:55:08.112Z,62.53
2019-02-09T07:00:15.050Z,62.71
2019-02-09T07:05:19.144Z,64.55
2019-02-09T07:10:24.153Z,63.35
2019-02-09T07:15:31.606Z,62.13
2019-02-09T07:20:36.098Z,61.15
2019-02-09T07:25:42.002Z,61.40
2019-02-09T07:30:46.911Z,61.76
2019-02-09T07:35:51.235Z,61.02
2019-02-09T07:40:55.419Z,60.37
2019-02-09T07:45:59.281Z,63.00
2019-02-09T07:51:06.521Z,59.93
2019-02-09T07:56:11.440Z,59.93
2019-02-09T08:01:16.054Z,60.21
2019-02-09T08:06:21.913Z,60.42
2019-02-09T08:11:25.904Z,61.33
2019-02-09T08:16:29.719Z,59.84
2019-02-09T08:21:33.901Z,62.29
2019-02-09T08:26:37.944Z,59.25
2019-02-09T08:31:42.666Z,60.03
2019-02-09T08:36:46.982Z,59.22
2019-02-09T08:42:00.682Z,57.90
2019-02-09T08:47:04.861Z,56.44
2019-02-09T08:52:09.734Z,55.28
2019-02-09T08:57:14.553Z,53.60
2019-02-09T09:02:20.833Z,52.64
2019-02-09T09:07:25.887Z,51.54
2019-02-09T09:12:34.224Z,53.16
2019-02-09T09:17:37.953Z,54.80
2019-02-09T09:22:42.962Z,56.09
2019-02-09T09:27:46.962Z,56.40
2019-02-09T09:33:02.002Z,56.73
2019-02-09T09:38:05.192Z,57.20
2019-02-09T09:43:09.532Z,55.99
2019-02-09T09:48:15.833Z,54.97
2019-02-09T09:53:20.192Z,54.35
2019-02-09T09:58:25.457Z,53.16
2019-02-09T10:03:33.084Z,52.39
2019-02-09T10:08:36.850Z,54.25
2019-02-09T10:13:41.053Z,53.33
2019-02-09T10:18:47.279Z,49.65
2019-02-09T10:23:52.254Z,50.12
2019-02-09T10:28:56.713Z,49.40
2019-02-09T10:34:01.155Z,49.04
2019-02-09T10:39:08.789Z,49.36
2019-02-09T10:44:14.050Z,50.33
2019-02-09T10:49:18.718Z,49.19
2019-02-09T10:54:23.641Z,50.50
2019-02-09T10:59:34.009Z,49.86
2019-02-09T11:04:40.509Z,50.53
2019-02-09T11:09:44.321Z,50.03
2019-02-09T11:14:53.222Z,49.71
2019-02-09T11:19:57.750Z,50.12
2019-02-09T11:25:01.439Z,49.97
2019-02-09T11:30:07.587Z,50.50
2019-02-09T11:35:12.266Z,51.13
2019-02-09T11:40:17.964Z,49.89
2019-02-09T11:45:27.260Z,50.02
2019-02-09T11:50:31.361Z,53.21
2019-02-09T11:55:36.667Z,50.33
2019-02-09T12:00:44.170Z,50.48
2019-02-09T12:05:47.982Z,50.61
2019-02-09T12:10:51.728Z,50.29
2019-02-09T12:15:55.545Z,49.31
2019-02-09T12:20:59.468Z,49.42
2019-02-09T12:26:03.385Z,48.90
2019-02-09T12:31:07.121Z,48.24
2019-02-09T12:36:11.194Z,48.36
2019-02-09T12:41:15.167Z,47.43
2019-02-09T12:46:19.097Z,48.02
2019-02-09T12:51:22.909Z,47.84
2019-02-09T12:56:26.789Z,47.49
2019-02-09T13:01:30.937Z,48.20
2019-02-09T13:06:35.040Z,48.13
2019-02-09T13:11:38.909Z,47.98
2019-02-09T13:16:42.774Z,48.11
2019-02-09T13:21:46.594Z,47.76
2019-02-09T13:26:50.833Z,47.72
2019-02-09T13:31:54.502Z,47.80
2019-02-09T13:37:00.428Z,47.93
2019-02-09T13:42:04.770Z,48.01
2019-02-09T13:47:09.196Z,47.81
2019-02-09T13:52:13.129Z,47.90
2019-02-09T13:57:16.940Z,47.33
2019-02-09T14:02:21.132Z,47.74
2019-02-09T14:07:25.259Z,49.63
2019-02-09T14:12:29.351Z,48.45
2019-02-09T14:17:33.250Z,50.52
2019-02-09T14:22:37.426Z,47.94
2019-02-09T14:27:41.785Z,48.72
2019-02-09T14:32:45.835Z,48.72
2019-02-09T14:37:53.137Z,48.97
2019-02-09T14:42:58.357Z,49.22
2019-02-09T14:48:02.468Z,49.76
2019-02-09T14:53:06.838Z,50.12
2019-02-09T14:58:10.669Z,50.20
2019-02-09T15:03:16.110Z,50.42
2019-02-09T15:08:20.020Z,50.55
2019-02-09T15:13:23.807Z,50.37
2019-02-09T15:18:27.529Z,50.68
2019-02-09T15:23:31.337Z,50.87
2019-02-09T15:28:35.241Z,51.20
2019-02-09T15:33:39.189Z,51.25
2019-02-09T15:38:43.218Z,51.30
2019-02-09T15:43:47.448Z,51.57
2019-02-09T15:48:52.779Z,51.81
2019-02-09T15:53:56.672Z,53.62
2019-02-09T15:59:00.679Z,52.18
2019-02-09T16:04:05.297Z,52.05
2019-02-09T16:09:09.370Z,51.86
2019-02-09T16:14:13.335Z,51.64
2019-02-09T16:19:17.296Z,51.72
2019-02-09T16:24:21.478Z,52.04
2019-02-09T16:29:25.464Z,51.62
2019-02-09T16:34:29.773Z,51.96
2019-02-09T16:39:33.966Z,51.51
2019-02-09T16:44:38.340Z,51.27
2019-02-09T16:49:42.313Z,51.68
2019-02-09T16:54:46.552Z,52.65
2019-02-09T16:59:51.491Z,52.87
2019-02-09T17:04:59.439Z,52.96
2019-02-09T17:10:05.252Z,53.09
2019-02-09T17:15:11.010Z,53.53
2019-02-09T17:20:15.261Z,53.84
2019-02-09T17:25:19.299Z,54.02
2019-02-09T17:30:27.137Z,54.89
2019-02-09T17:35:31.005Z,55.51
2019-02-09T17:40:37.904Z,56.43
2019-02-09T17:45:51.128Z,56.98
2019-02-09T17:50:55.080Z,57.67
2019-02-09T17:56:00.495Z,58.05
2019-02-09T18:01:07.474Z,58.73
2019-02-09T18:06:14.267Z,59.52
2019-02-09T18:11:18.267Z,59.94
2019-02-09T18:16:21.917Z,60.02
2019-02-09T18:21:26.113Z,60.84
2019-02-09T18:26:30.117Z,61.43
2019-02-09T18:31:34.023Z,61.95
2019-02-09T18:36:38.114Z,62.32
2019-02-09T18:41:42.019Z,62.93
2019-02-09T18:46:46.097Z,62.95
2019-02-09T18:51:52.495Z,62.90
2019-02-09T18:56:57.398Z,63.04
2019-02-09T19:02:01.277Z,63.12
2019-02-09T19:07:07.036Z,63.12
2019-02-09T19:12:10.987Z,63.21
2019-02-09T19:17:14.782Z,63.36
2019-02-09T19:22:20.468Z,63.31
2019-02-09T19:27:24.671Z,63.32
2019-02-09T19:32:28.424Z,63.29
2019-02-09T19:37:32.207Z,62.53
2019-02-09T19:42:36.830Z,62.69
2019-02-09T19:47:41.331Z,62.60
2019-02-09T19:52:45.349Z,62.48
2019-02-09T19:57:50.131Z,62.04
2019-02-09T20:02:54.660Z,62.17
2019-02-09T20:08:02.303Z,62.63
2019-02-09T20:13:09.376Z,62.70
2019-02-09T20:18:13.331Z,62.96
2019-02-09T20:23:17.159Z,63.20
2019-02-09T20:28:21.041Z,63.11
2019-02-09T20:33:24.844Z,63.69
2019-02-09T20:38:28.854Z,63.90
2019-02-09T20:43:32.815Z,63.90
2019-02-09T20:48:36.727Z,63.79
2019-02-09T20:53:41.961Z,63.95
2019-02-09T20:58:46.097Z,63.82
2019-02-09T21:03:49.872Z,64.01
2019-02-09T21:08:54.075Z,64.35
2019-02-09T21:13:57.943Z,64.53
2019-02-09T21:19:02.158Z,64.75
2019-02-09T21:24:09.385Z,64.12
2019-02-09T21:29:14.837Z,64.43
2019-02-09T21:34:18.793Z,64.60
2019-02-09T21:39:22.569Z,64.84
2019-02-09T21:44:26.574Z,65.34
2019-02-09T21:49:30.431Z,65.69
2019-02-09T21:54:35.411Z,65.54
2019-02-09T21:59:39.199Z,65.69
2019-02-09T22:04:43.008Z,65.55
2019-02-09T22:09:48.323Z,65.66
2019-02-09T22:14:52.229Z,65.99
2019-02-09T22:19:56.185Z,66.12
2019-02-09T22:25:00.001Z,66.14
2019-02-09T22:30:06.065Z,66.46
2019-02-09T22:35:11.107Z,66.30
2019-02-09T22:40:19.856Z,66.48
2019-02-09T22:45:24.881Z,66.79
2019-02-09T22:50:34.186Z,66.64
2019-02-09T22:55:39.335Z,66.88
2019-02-09T23:00:55.520Z,66.87
2019-02-09T23:06:43.270Z,67.02
2019-02-09T23:11:47.517Z,66.96
2019-02-09T23:16:54.107Z,67.16
2019-02-09T23:21:57.825Z,67.06
2019-02-09T23:27:01.690Z,66.97
2019-02-09T23:32:05.360Z,67.04
2019-02-09T23:37:09.224Z,67.05
2019-02-09T23:42:13.007Z,66.81
2019-02-09T23:47:16.851Z,66.49
2019-02-09T23:52:21.576Z,66.61
2019-02-09T23:57:25.466Z,66.46
